Time;durP1;ratioP1;P1;durP2;ratioP2;P2;SDS_P1;SDS_P2;PMS_P1;PMS_P2;Temp;Humidity;BMP_temperature;BMP_pressure;BME280_temperature;BME280_humidity;BME280_pressure;Samples;Min_cycle;Max_cycle;Signal;HPM_P1;HPM_P2
2023/01/21 00:00:21;;;;;;;11.95;11.15;;;;;;;;;;4992837;28;20921;-59
2023/01/21 00:02:47;;;;;;;13.57;12.57;;;;;;;;;;4994632;28;20038;-58
2023/01/21 00:05:12;;;;;;;12.18;11.45;;;;;;;;;;4994456;28;20046;-58
2023/01/21 00:07:38;;;;;;;12.32;11.52;;;;;;;;;;4996223;28;20480;-58
2023/01/21 00:10:04;;;;;;;13.05;12.10;;;;;;;;;;4991250;28;20364;-58
2023/01/21 00:12:29;;;;;;;12.75;11.95;;;;;;;;;;4993160;28;20030;-58
2023/01/21 00:14:55;;;;;;;11.13;10.43;;;;;;;;;;4995898;28;20045;-58
2023/01/21 00:17:20;;;;;;;11.70;11.00;;;;;;;;;;4995195;28;20037;-58
2023/01/21 00:19:45;;;;;;;13.35;12.20;;;;;;;;;;4994953;28;20043;-56
2023/01/21 00:22:11;;;;;;;14.02;13.07;;;;;;;;;;4992250;28;20030;-56
2023/01/21 00:24:36;;;;;;;12.13;11.20;;;;;;;;;;4996767;28;20347;-56
2023/01/21 00:27:01;;;;;;;12.52;11.73;;;;;;;;;;4994871;28;20033;-56
2023/01/21 00:29:27;;;;;;;12.18;11.27;;;;;;;;;;4994488;28;20613;-56
2023/01/21 00:31:52;;;;;;;10.93;10.23;;;;;;;;;;4998376;28;20077;-56
2023/01/21 00:34:17;;;;;;;11.80;11.00;;;;;;;;;;4998031;28;20041;-58
2023/01/21 00:36:43;;;;;;;12.02;11.23;;;;;;;;;;4996201;28;20200;-58
2023/01/21 00:39:08;;;;;;;12.65;11.75;;;;;;;;;;4998911;28;20127;-58
2023/01/21 00:41:36;;;;;;;11.23;10.43;;;;;;;;;;4997777;28;20038;-58
2023/01/21 00:44:01;;;;;;;12.73;11.73;;;;;;;;;;4997601;28;20075;-58
2023/01/21 00:46:27;;;;;;;12.13;11.32;;;;;;;;;;4998884;28;20125;-55
2023/01/21 00:48:54;;;;;;;11.00;10.30;;;;;;;;;;4996696;28;20034;-54
2023/01/21 00:51:20;;;;;;;11.57;10.77;;;;;;;;;;4995241;28;20069;-55
2023/01/21 00:53:45;;;;;;;12.75;11.85;;;;;;;;;;4999800;28;20070;-56
2023/01/21 00:56:12;;;;;;;13.93;12.65;;;;;;;;;;4996328;28;20034;-53
2023/01/21 00:58:37;;;;;;;12.95;11.88;;;;;;;;;;4996900;28;20042;-54
2023/01/21 01:01:06;;;;;;;13.48;12.48;;;;;;;;;;4997965;28;20052;-55
2023/01/21 01:03:32;;;;;;;12.90;11.95;;;;;;;;;;4997412;28;20041;-53
2023/01/21 01:06:05;;;;;;;12.65;11.82;;;;;;;;;;4996572;28;20053;-56
2023/01/21 01:08:31;;;;;;;10.77;10.07;;;;;;;;;;4995946;28;20428;-54
2023/01/21 01:10:57;;;;;;;12.32;11.43;;;;;;;;;;4998094;28;20129;-56
2023/01/21 01:13:22;;;;;;;11.80;10.95;;;;;;;;;;4996964;28;20030;-55
2023/01/21 01:15:51;;;;;;;12.85;11.82;;;;;;;;;;4994934;28;20145;-51
2023/01/21 01:18:16;;;;;;;12.45;11.55;;;;;;;;;;4996807;28;20038;-52
2023/01/21 01:20:42;;;;;;;14.38;13.27;;;;;;;;;;4997758;28;20040;-52
2023/01/21 01:23:08;;;;;;;10.48;9.80;;;;;;;;;;4997682;28;20041;-54
2023/01/21 01:25:34;;;;;;;11.85;10.90;;;;;;;;;;4995729;28;20104;-55
2023/01/21 01:27:59;;;;;;;13.32;12.18;;;;;;;;;;4996781;28;20092;-51
2023/01/21 01:30:24;;;;;;;12.05;11.18;;;;;;;;;;4995998;28;20061;-52
2023/01/21 01:32:50;;;;;;;12.35;11.48;;;;;;;;;;5001348;28;20111;-54
2023/01/21 01:35:15;;;;;;;12.25;11.35;;;;;;;;;;4996438;28;20385;-55
2023/01/21 01:37:41;;;;;;;13.50;12.25;;;;;;;;;;4996833;28;20034;-58
2023/01/21 01:40:07;;;;;;;11.98;11.15;;;;;;;;;;4995743;28;20066;-58
2023/01/21 01:42:33;;;;;;;12.18;11.32;;;;;;;;;;4995913;28;20472;-58
2023/01/21 01:45:04;;;;;;;12.70;11.80;;;;;;;;;;4994021;28;20056;-57
2023/01/21 01:47:44;;;;;;;13.52;12.52;;;;;;;;;;4995113;28;20468;-58
2023/01/21 01:50:13;;;;;;;12.38;11.52;;;;;;;;;;4995812;28;20067;-58
2023/01/21 01:52:41;;;;;;;12.48;11.45;;;;;;;;;;4997150;28;20034;-58
2023/01/21 01:55:08;;;;;;;13.20;12.30;;;;;;;;;;4995297;28;22723;-58
2023/01/21 01:57:36;;;;;;;12.32;11.52;;;;;;;;;;4995363;28;20041;-58
2023/01/21 02:00:08;;;;;;;11.88;11.07;;;;;;;;;;4995637;28;20061;-58
2023/01/21 02:02:34;;;;;;;12.90;12.00;;;;;;;;;;4994768;28;20038;-60
2023/01/21 02:05:03;;;;;;;12.40;11.50;;;;;;;;;;4994096;28;20042;-59
2023/01/21 02:07:37;;;;;;;12.25;11.45;;;;;;;;;;4995353;28;20041;-58
2023/01/21 02:10:05;;;;;;;12.32;11.52;;;;;;;;;;4998236;28;20100;-58
2023/01/21 02:12:30;;;;;;;11.73;10.93;;;;;;;;;;4995144;28;20128;-58
2023/01/21 02:14:56;;;;;;;12.25;11.38;;;;;;;;;;4996401;28;20131;-58
2023/01/21 02:17:44;;;;;;;11.35;10.65;;;;;;;;;;4994520;28;20045;-58
2023/01/21 02:20:44;;;;;;;13.02;12.13;;;;;;;;;;4996590;28;20034;-57
2023/01/21 02:23:37;;;;;;;12.10;11.30;;;;;;;;;;4993944;28;20029;-58
2023/01/21 02:26:37;;;;;;;12.07;11.27;;;;;;;;;;4994542;28;20855;-58
2023/01/21 02:29:13;;;;;;;14.80;13.60;;;;;;;;;;4996085;28;20062;-58
2023/01/21 02:31:50;;;;;;;13.75;12.57;;;;;;;;;;4995771;28;20042;-58
2023/01/21 02:34:42;;;;;;;12.43;11.57;;;;;;;;;;5002598;28;20038;-58
2023/01/21 02:37:12;;;;;;;11.38;10.57;;;;;;;;;;4998797;28;20899;-57
2023/01/21 02:39:55;;;;;;;12.38;11.57;;;;;;;;;;4993667;28;20509;-56
2023/01/21 02:42:32;;;;;;;12.68;11.85;;;;;;;;;;4995681;28;20030;-57
2023/01/21 02:45:18;;;;;;;16.17;11.68;;;;;;;;;;4995982;28;20041;-57
2023/01/21 02:47:53;;;;;;;13.15;11.98;;;;;;;;;;4993555;28;20457;-57
2023/01/21 02:50:23;;;;;;;12.70;11.45;;;;;;;;;;4993592;28;20038;-57
2023/01/21 02:53:00;;;;;;;10.80;10.10;;;;;;;;;;4994523;28;20430;-57
2023/01/21 02:55:35;;;;;;;13.48;12.48;;;;;;;;;;4995563;28;20736;-56
2023/01/21 02:58:26;;;;;;;11.98;11.18;;;;;;;;;;4993589;28;20100;-57
2023/01/21 03:01:03;;;;;;;;;;;;;;;;;;4996855;28;20033;-56
2023/01/21 03:03:46;;;;;;;11.30;10.45;;;;;;;;;;4995132;28;19914;-57
2023/01/21 03:06:28;;;;;;;11.63;10.82;;;;;;;;;;4993831;28;20337;-57
2023/01/21 03:09:09;;;;;;;11.00;10.30;;;;;;;;;;4993937;28;20057;-56
2023/01/21 03:11:35;;;;;;;11.90;11.10;;;;;;;;;;4995294;28;20376;-56
2023/01/21 03:17:15;;;;;;;12.70;11.80;;;;;;;;;;4993879;28;20104;-56
2023/01/21 03:19:55;;;;;;;13.23;12.23;;;;;;;;;;4994677;28;20500;-50
2023/01/21 03:22:25;;;;;;;13.82;12.70;;;;;;;;;;4997123;28;20120;-53
2023/01/21 03:24:52;;;;;;;13.38;12.38;;;;;;;;;;4995307;28;20038;-54
2023/01/21 03:27:21;;;;;;;12.65;11.65;;;;;;;;;;4997250;28;20037;-54
2023/01/21 03:29:48;;;;;;;12.70;11.80;;;;;;;;;;5011300;28;20030;-53
2023/01/21 03:32:17;;;;;;;12.10;11.18;;;;;;;;;;4993947;28;20030;-51
2023/01/21 03:34:46;;;;;;;12.52;11.60;;;;;;;;;;4993870;28;20026;-50
2023/01/21 03:37:28;;;;;;;11.68;10.88;;;;;;;;;;4994550;28;20037;-56
2023/01/21 03:40:04;;;;;;;11.65;10.85;;;;;;;;;;4995443;28;20551;-56
2023/01/21 03:42:29;;;;;;;11.75;10.95;;;;;;;;;;4993804;28;20555;-56
2023/01/21 03:44:55;;;;;;;13.48;12.48;;;;;;;;;;4994676;28;20030;-55
2023/01/21 03:47:30;;;;;;;12.75;11.75;;;;;;;;;;4992805;28;20092;-54
2023/01/21 03:50:24;;;;;;;13.65;12.55;;;;;;;;;;4993940;28;20439;-55
2023/01/21 03:52:49;;;;;;;12.05;11.25;;;;;;;;;;4994070;28;20050;-56
2023/01/21 03:55:16;;;;;;;12.35;11.35;;;;;;;;;;4996283;28;20029;-54
2023/01/21 03:57:41;;;;;;;12.55;11.55;;;;;;;;;;4994306;28;20125;-52
2023/01/21 04:00:07;;;;;;;12.75;11.82;;;;;;;;;;4994184;28;20161;-54
2023/01/21 04:02:33;;;;;;;11.15;10.45;;;;;;;;;;4999795;28;20061;-53
2023/01/21 04:04:58;;;;;;;13.07;12.13;;;;;;;;;;4996594;28;20463;-52
2023/01/21 04:07:23;;;;;;;12.07;11.18;;;;;;;;;;4999931;28;20850;-52
2023/01/21 04:09:49;;;;;;;12.85;11.95;;;;;;;;;;4999338;28;20480;-50
2023/01/21 04:12:15;;;;;;;12.25;11.40;;;;;;;;;;5000006;28;20479;-54
2023/01/21 04:14:40;;;;;;;13.98;12.85;;;;;;;;;;4999659;28;20034;-52
2023/01/21 04:17:05;;;;;;;11.65;10.85;;;;;;;;;;4998277;28;20072;-53
2023/01/21 04:19:31;;;;;;;13.05;12.15;;;;;;;;;;4997621;28;20045;-49
2023/01/21 04:21:56;;;;;;;11.50;10.75;;;;;;;;;;4999583;28;20073;-50
2023/01/21 04:24:21;;;;;;;10.82;10.13;;;;;;;;;;4997989;28;20109;-54
2023/01/21 04:26:47;;;;;;;12.70;11.68;;;;;;;;;;4997269;28;20038;-54
2023/01/21 04:29:12;;;;;;;12.20;11.35;;;;;;;;;;4998599;28;20048;-51
2023/01/21 04:31:37;;;;;;;10.75;10.05;;;;;;;;;;4995334;28;20038;-53
2023/01/21 04:34:03;;;;;;;12.35;11.55;;;;;;;;;;4996708;28;20479;-52
2023/01/21 04:36:28;;;;;;;11.98;11.18;;;;;;;;;;4997422;28;20030;-55
2023/01/21 04:38:54;;;;;;;11.98;11.18;;;;;;;;;;4998178;28;20432;-55
2023/01/21 04:41:19;;;;;;;13.57;12.38;;;;;;;;;;4997797;28;20077;-55
2023/01/21 04:43:44;;;;;;;14.55;13.43;;;;;;;;;;4998059;28;20030;-55
2023/01/21 04:46:10;;;;;;;12.85;11.85;;;;;;;;;;4997917;28;20076;-55
2023/01/21 04:48:35;;;;;;;11.57;10.77;;;;;;;;;;4996693;28;20141;-55
2023/01/21 04:51:00;;;;;;;13.10;12.13;;;;;;;;;;4997072;28;20400;-53
2023/01/21 04:53:26;;;;;;;12.75;11.88;;;;;;;;;;4999163;28;20423;-51
2023/01/21 04:55:52;;;;;;;12.32;11.13;;;;;;;;;;4998137;28;20034;-55
2023/01/21 04:58:18;;;;;;;12.70;11.65;;;;;;;;;;4997047;28;20041;-54
2023/01/21 05:00:43;;;;;;;12.80;11.90;;;;;;;;;;4998467;28;20118;-55
2023/01/21 05:03:09;;;;;;;12.88;11.98;;;;;;;;;;4996399;28;20132;-54
2023/01/21 05:05:34;;;;;;;14.10;13.05;;;;;;;;;;4997471;28;20046;-50
2023/01/21 05:07:59;;;;;;;12.63;11.68;;;;;;;;;;4995025;28;20376;-52
2023/01/21 05:10:25;;;;;;;14.27;13.25;;;;;;;;;;4997178;28;20030;-50
2023/01/21 05:12:50;;;;;;;11.43;10.60;;;;;;;;;;4997177;28;20092;-51
2023/01/21 05:15:15;;;;;;;13.10;12.10;;;;;;;;;;4996755;28;20040;-50
2023/01/21 05:17:41;;;;;;;11.00;10.30;;;;;;;;;;4995971;28;20034;-50
2023/01/21 05:20:07;;;;;;;12.25;11.43;;;;;;;;;;4996946;28;20506;-53
2023/01/21 05:22:32;;;;;;;12.65;11.70;;;;;;;;;;4994958;28;20074;-54
2023/01/21 05:24:59;;;;;;;13.02;12.02;;;;;;;;;;4994715;28;20038;-55
2023/01/21 05:27:25;;;;;;;12.93;12.00;;;;;;;;;;4996353;28;20046;-53
2023/01/21 05:29:51;;;;;;;11.93;11.18;;;;;;;;;;4995438;28;20038;-53
2023/01/21 05:32:17;;;;;;;12.48;11.57;;;;;;;;;;4997096;28;20101;-49
2023/01/21 05:34:42;;;;;;;13.07;12.07;;;;;;;;;;4998187;28;20045;-49
2023/01/21 05:37:08;;;;;;;13.13;12.23;;;;;;;;;;4998709;28;20049;-54
2023/01/21 05:39:34;;;;;;;12.10;11.30;;;;;;;;;;4997963;28;20033;-56
2023/01/21 05:41:59;;;;;;;13.18;12.18;;;;;;;;;;4987088;28;20053;-55
2023/01/21 05:44:24;;;;;;;12.68;11.82;;;;;;;;;;4997007;28;20722;-54
2023/01/21 05:46:50;;;;;;;12.15;11.35;;;;;;;;;;4996485;28;20388;-53
2023/01/21 05:49:15;;;;;;;12.80;11.75;;;;;;;;;;5001787;28;20137;-49
2023/01/21 05:51:41;;;;;;;11.98;11.18;;;;;;;;;;4997657;28;20042;-53
2023/01/21 05:54:06;;;;;;;11.95;11.18;;;;;;;;;;4995482;28;20045;-56
2023/01/21 05:56:31;;;;;;;11.70;10.90;;;;;;;;;;4994587;28;20049;-54
2023/01/21 05:58:57;;;;;;;12.48;11.65;;;;;;;;;;4993458;28;20049;-53
2023/01/21 06:01:22;;;;;;;13.65;12.65;;;;;;;;;;4993407;28;20036;-54
2023/01/21 06:03:47;;;;;;;14.13;13.00;;;;;;;;;;4997231;28;20041;-55
2023/01/21 06:06:13;;;;;;;12.77;11.98;;;;;;;;;;4996633;28;20042;-54
2023/01/21 06:08:38;;;;;;;12.57;11.60;;;;;;;;;;4995733;28;20490;-55
2023/01/21 06:11:03;;;;;;;12.85;12.00;;;;;;;;;;4995282;28;20042;-54
2023/01/21 06:13:29;;;;;;;13.18;12.25;;;;;;;;;;4998798;28;20128;-55
2023/01/21 06:15:55;;;;;;;13.13;12.30;;;;;;;;;;4995999;28;20034;-55
2023/01/21 06:18:21;;;;;;;12.45;11.63;;;;;;;;;;4987181;28;20483;-56
2023/01/21 06:20:47;;;;;;;12.77;11.90;;;;;;;;;;4996111;28;20053;-56
2023/01/21 06:23:12;;;;;;;13.02;11.98;;;;;;;;;;4996166;28;20042;-55
2023/01/21 06:25:38;;;;;;;13.55;12.48;;;;;;;;;;4996921;28;20042;-53
2023/01/21 06:28:03;;;;;;;11.82;11.02;;;;;;;;;;4995187;28;20173;-50
2023/01/21 06:30:28;;;;;;;11.50;10.63;;;;;;;;;;4998884;28;20095;-53
2023/01/21 06:32:54;;;;;;;11.52;10.82;;;;;;;;;;4992578;28;20478;-54
2023/01/21 06:35:19;;;;;;;12.38;11.48;;;;;;;;;;4997464;28;20050;-50
2023/01/21 06:37:45;;;;;;;13.48;12.57;;;;;;;;;;4995589;28;20045;-55
2023/01/21 06:40:13;;;;;;;12.05;11.20;;;;;;;;;;4997465;28;20033;-56
2023/01/21 06:42:39;;;;;;;12.25;11.45;;;;;;;;;;4996156;28;20038;-53
2023/01/21 06:45:05;;;;;;;13.05;12.15;;;;;;;;;;4994091;28;20037;-55
2023/01/21 06:47:30;;;;;;;12.02;11.23;;;;;;;;;;4993216;28;20042;-55
2023/01/21 06:49:55;;;;;;;12.13;11.23;;;;;;;;;;4996365;28;20127;-55
2023/01/21 06:52:21;;;;;;;12.35;11.50;;;;;;;;;;4996604;28;20033;-56
2023/01/21 06:54:47;;;;;;;12.20;11.38;;;;;;;;;;4995125;28;20042;-55
2023/01/21 06:57:13;;;;;;;14.00;12.88;;;;;;;;;;4999405;28;20065;-56
2023/01/21 06:59:38;;;;;;;13.88;12.73;;;;;;;;;;4995654;28;20068;-55
2023/01/21 07:02:04;;;;;;;13.88;12.65;;;;;;;;;;4995255;28;20703;-55
2023/01/21 07:04:29;;;;;;;13.32;12.40;;;;;;;;;;4995951;28;20057;-56
2023/01/21 07:06:55;;;;;;;11.27;10.57;;;;;;;;;;4996103;28;20038;-54
2023/01/21 07:09:20;;;;;;;12.73;11.85;;;;;;;;;;4992827;28;20469;-55
2023/01/21 07:11:46;;;;;;;13.48;12.57;;;;;;;;;;4991680;28;20201;-53
2023/01/21 07:14:12;;;;;;;13.77;12.70;;;;;;;;;;4991983;28;20041;-53
2023/01/21 07:16:37;;;;;;;13.52;12.30;;;;;;;;;;4989212;28;20038;-55
2023/01/21 07:19:02;;;;;;;13.63;12.60;;;;;;;;;;4992944;28;20129;-55
2023/01/21 07:21:28;;;;;;;13.63;12.65;;;;;;;;;;4995678;28;20030;-54
2023/01/21 07:23:54;;;;;;;13.02;12.02;;;;;;;;;;4992925;28;20112;-52
2023/01/21 07:26:20;;;;;;;10.93;10.23;;;;;;;;;;4996028;28;21626;-54
2023/01/21 07:28:45;;;;;;;13.48;12.50;;;;;;;;;;4995018;28;20038;-56
2023/01/21 07:31:10;;;;;;;14.15;12.80;;;;;;;;;;4994847;28;20425;-57
2023/01/21 07:33:36;;;;;;;11.75;10.93;;;;;;;;;;4996160;28;20053;-56
2023/01/21 07:36:01;;;;;;;13.95;12.75;;;;;;;;;;4994404;28;20045;-55
2023/01/21 07:38:27;;;;;;;11.68;10.88;;;;;;;;;;4993683;28;20049;-53
2023/01/21 07:40:52;;;;;;;12.95;11.98;;;;;;;;;;4996153;28;20046;-53
2023/01/21 07:43:18;;;;;;;11.85;10.75;;;;;;;;;;4998057;28;20420;-55
2023/01/21 07:45:43;;;;;;;11.57;10.57;;;;;;;;;;5000228;28;20421;-56
2023/01/21 07:48:09;;;;;;;11.50;10.70;;;;;;;;;;4999334;28;20503;-56
2023/01/21 07:50:35;;;;;;;10.50;9.77;;;;;;;;;;4995801;28;20160;-55
2023/01/21 07:53:01;;;;;;;13.00;12.02;;;;;;;;;;4998754;28;20049;-57
2023/01/21 07:55:27;;;;;;;11.90;11.10;;;;;;;;;;4993873;28;20129;-56
2023/01/21 07:57:54;;;;;;;13.15;11.90;;;;;;;;;;4999943;28;20038;-57
2023/01/21 08:00:20;;;;;;;11.35;10.45;;;;;;;;;;4994864;28;20046;-57
2023/01/21 08:02:50;;;;;;;11.18;10.38;;;;;;;;;;4996509;28;20074;-59
2023/01/21 08:05:15;;;;;;;12.40;11.60;;;;;;;;;;4996507;28;20038;-58
2023/01/21 08:07:41;;;;;;;12.20;11.25;;;;;;;;;;4994037;28;20049;-58
2023/01/21 08:10:06;;;;;;;12.57;11.68;;;;;;;;;;4991120;28;20619;-58
2023/01/21 08:12:32;;;;;;;13.43;12.45;;;;;;;;;;4993435;28;20042;-57
2023/01/21 08:14:57;;;;;;;13.38;11.98;;;;;;;;;;4997521;28;20528;-57
2023/01/21 08:17:22;;;;;;;13.88;12.68;;;;;;;;;;4998646;28;20433;-58
2023/01/21 08:19:48;;;;;;;11.48;10.70;;;;;;;;;;5000075;28;20038;-56
2023/01/21 08:22:13;;;;;;;14.32;13.00;;;;;;;;;;4996183;28;20046;-56
2023/01/21 08:24:38;;;;;;;12.93;12.02;;;;;;;;;;4996328;28;20046;-56
2023/01/21 08:27:04;;;;;;;12.88;11.98;;;;;;;;;;4995072;28;20044;-57
2023/01/21 08:29:29;;;;;;;13.40;12.50;;;;;;;;;;4994219;28;20041;-57
2023/01/21 08:31:54;;;;;;;12.82;11.95;;;;;;;;;;4995782;28;20026;-57
2023/01/21 08:34:20;;;;;;;14.40;13.40;;;;;;;;;;4995256;28;20042;-57
2023/01/21 08:36:45;;;;;;;13.57;12.68;;;;;;;;;;4993976;28;20133;-57
2023/01/21 08:39:15;;;;;;;15.35;14.05;;;;;;;;;;4997458;28;20046;-57
2023/01/21 08:41:41;;;;;;;13.07;12.05;;;;;;;;;;4997768;28;20065;-57
2023/01/21 08:44:06;;;;;;;13.45;12.20;;;;;;;;;;5001350;28;20096;-57
2023/01/21 08:46:33;;;;;;;14.07;12.88;;;;;;;;;;4996294;28;20270;-58
2023/01/21 08:48:59;;;;;;;12.98;11.95;;;;;;;;;;4998845;28;20113;-57
2023/01/21 08:51:24;;;;;;;12.32;11.20;;;;;;;;;;4995757;28;20121;-57
2023/01/21 08:53:50;;;;;;;11.88;11.05;;;;;;;;;;4997392;28;20053;-58
2023/01/21 08:56:15;;;;;;;12.63;11.73;;;;;;;;;;4996035;28;20026;-57
2023/01/21 08:58:41;;;;;;;13.00;11.77;;;;;;;;;;4996612;28;20038;-57
2023/01/21 09:01:09;;;;;;;13.25;12.32;;;;;;;;;;4996607;28;20049;-58
2023/01/21 09:03:35;;;;;;;12.27;11.38;;;;;;;;;;4997183;28;20636;-57
2023/01/21 09:06:02;;;;;;;14.00;11.60;;;;;;;;;;4995783;28;20065;-57
2023/01/21 09:08:28;;;;;;;11.40;10.60;;;;;;;;;;4998749;28;20104;-58
2023/01/21 09:11:00;;;;;;;11.52;10.73;;;;;;;;;;4996632;28;20030;-57
2023/01/21 09:13:28;;;;;;;12.23;11.18;;;;;;;;;;4999089;28;20404;-58
2023/01/21 09:15:53;;;;;;;12.88;11.63;;;;;;;;;;4998842;28;20037;-58
2023/01/21 09:18:19;;;;;;;10.98;10.25;;;;;;;;;;4999690;28;20030;-58
2023/01/21 09:20:44;;;;;;;11.27;10.48;;;;;;;;;;4995548;28;20424;-58
2023/01/21 09:23:25;;;;;;;10.52;9.73;;;;;;;;;;5000436;28;20129;-57
2023/01/21 09:26:14;;;;;;;12.13;11.07;;;;;;;;;;4999575;28;20303;-57
2023/01/21 09:28:41;;;;;;;10.65;9.75;;;;;;;;;;4993653;28;20158;-57
2023/01/21 09:31:10;;;;;;;9.50;8.85;;;;;;;;;;4996707;28;20059;-53
2023/01/21 09:33:37;;;;;;;10.48;9.68;;;;;;;;;;5003531;28;20460;-54
2023/01/21 09:36:04;;;;;;;11.35;10.45;;;;;;;;;;4997289;28;20456;-58
2023/01/21 09:38:30;;;;;;;9.77;9.18;;;;;;;;;;4998279;28;20042;-58
2023/01/21 09:41:03;;;;;;;9.80;9.20;;;;;;;;;;4996540;28;20266;-58
2023/01/21 09:43:34;;;;;;;9.35;8.75;;;;;;;;;;4998219;28;20498;-58
2023/01/21 09:46:04;;;;;;;11.13;10.32;;;;;;;;;;4995480;28;20042;-59
2023/01/21 09:48:33;;;;;;;10.60;9.90;;;;;;;;;;4995381;28;20053;-59
2023/01/21 09:51:04;;;;;;;9.80;9.10;;;;;;;;;;4996298;28;20038;-58
2023/01/21 09:53:55;;;;;;;11.27;10.35;;;;;;;;;;4995059;28;20483;-58
2023/01/21 09:56:33;;;;;;;11.75;10.85;;;;;;;;;;4997532;28;20620;-58
2023/01/21 09:59:04;;;;;;;10.27;9.57;;;;;;;;;;4996662;28;20061;-58
2023/01/21 10:01:33;;;;;;;10.45;9.75;;;;;;;;;;4996653;28;20065;-59
2023/01/21 10:04:30;;;;;;;37.25;11.27;;;;;;;;;;4995930;28;20407;-59
2023/01/21 10:07:05;;;;;;;9.13;8.52;;;;;;;;;;4995321;28;20200;-58
2023/01/21 10:09:49;;;;;;;10.75;10.05;;;;;;;;;;4998291;28;20069;-57
2023/01/21 10:12:46;;;;;;;10.20;9.50;;;;;;;;;;4986002;28;20089;-59
2023/01/21 10:15:36;;;;;;;9.85;9.15;;;;;;;;;;4996056;28;20137;-58
2023/01/21 10:18:08;;;;;;;10.65;9.80;;;;;;;;;;4997374;28;20488;-60
2023/01/21 10:20:49;;;;;;;9.95;9.35;;;;;;;;;;4996023;28;20060;-58
2023/01/21 10:23:21;;;;;;;9.60;9.00;;;;;;;;;;4996330;28;20034;-58
2023/01/21 10:25:50;;;;;;;9.52;8.93;;;;;;;;;;4994981;28;20045;-58
2023/01/21 10:28:24;;;;;;;10.82;10.13;;;;;;;;;;4995509;28;20109;-58
2023/01/21 10:30:57;;;;;;;9.40;8.80;;;;;;;;;;4996177;28;20034;-58
2023/01/21 10:33:27;;;;;;;11.07;10.30;;;;;;;;;;4994953;28;20030;-58
2023/01/21 10:36:25;;;;;;;11.73;10.90;;;;;;;;;;4993510;28;20095;-58
2023/01/21 10:39:00;;;;;;;11.40;10.50;;;;;;;;;;4978889;28;20265;-58
2023/01/21 10:41:37;;;;;;;9.27;8.68;;;;;;;;;;4993047;28;20145;-58
2023/01/21 10:44:08;;;;;;;10.13;9.43;;;;;;;;;;4998675;28;20026;-58
2023/01/21 10:46:53;;;;;;;16.23;9.77;;;;;;;;;;4993828;28;20037;-58
2023/01/21 10:49:19;;;;;;;10.75;10.05;;;;;;;;;;4985974;28;20376;-54
2023/01/21 10:51:51;;;;;;;11.82;10.90;;;;;;;;;;4994500;28;20424;-58
2023/01/21 10:54:43;;;;;;;11.70;10.90;;;;;;;;;;4994253;28;20121;-58
2023/01/21 10:57:26;;;;;;;10.73;10.02;;;;;;;;;;4995334;28;20041;-58
2023/01/21 10:59:52;;;;;;;10.88;10.10;;;;;;;;;;4993096;28;20076;-58
2023/01/21 11:02:28;;;;;;;11.52;10.73;;;;;;;;;;4992773;28;20121;-54
2023/01/21 11:04:57;;;;;;;10.32;9.63;;;;;;;;;;4995551;28;20029;-55
2023/01/21 11:07:23;;;;;;;10.98;10.27;;;;;;;;;;4995513;28;20034;-56
2023/01/21 11:09:50;;;;;;;11.00;10.27;;;;;;;;;;4997067;28;20034;-55
2023/01/21 11:12:20;;;;;;;9.70;9.02;;;;;;;;;;4993276;28;20033;-56
2023/01/21 11:14:56;;;;;;;10.05;9.35;;;;;;;;;;4994768;28;20033;-53
2023/01/21 11:17:49;;;;;;;10.43;9.65;;;;;;;;;;4995956;28;20443;-57
2023/01/21 11:20:38;;;;;;;10.52;9.82;;;;;;;;;;4996547;28;20053;-58
2023/01/21 11:23:05;;;;;;;10.88;10.07;;;;;;;;;;4993853;28;20372;-58
2023/01/21 11:25:40;;;;;;;9.98;9.18;;;;;;;;;;4993147;28;20493;-57
2023/01/21 11:28:28;;;;;;;10.43;9.68;;;;;;;;;;4995383;28;20936;-56
2023/01/21 11:31:25;;;;;;;11.57;10.75;;;;;;;;;;4991880;28;20038;-56
2023/01/21 11:33:51;;;;;;;11.35;10.57;;;;;;;;;;4997275;28;20537;-56
2023/01/21 11:36:19;;;;;;;11.60;10.80;;;;;;;;;;5002784;28;20567;-55
2023/01/21 11:38:58;;;;;;;10.38;9.68;;;;;;;;;;5000461;28;20065;-57
2023/01/21 11:41:23;;;;;;;10.95;10.15;;;;;;;;;;4996073;28;20040;-52
2023/01/21 11:43:52;;;;;;;11.23;10.32;;;;;;;;;;4998188;28;20042;-52
2023/01/21 11:46:21;;;;;;;10.45;9.75;;;;;;;;;;4999431;28;20033;-51
2023/01/21 11:48:47;;;;;;;9.48;8.88;;;;;;;;;;4997699;28;20042;-52
2023/01/21 11:51:12;;;;;;;9.52;8.93;;;;;;;;;;4994894;28;20345;-51
2023/01/21 11:53:39;;;;;;;11.75;10.80;;;;;;;;;;4994629;28;20037;-52
2023/01/21 11:56:06;;;;;;;10.35;9.65;;;;;;;;;;4998512;28;20084;-53
2023/01/21 11:58:33;;;;;;;11.25;10.45;;;;;;;;;;4999355;28;20136;-56
2023/01/21 12:01:01;;;;;;;10.85;10.15;;;;;;;;;;4996382;28;20041;-56
2023/01/21 12:03:33;;;;;;;11.38;10.57;;;;;;;;;;4997006;28;20068;-54
2023/01/21 12:05:59;;;;;;;10.45;9.75;;;;;;;;;;4994230;28;20049;-56
2023/01/21 12:08:27;;;;;;;10.73;9.77;;;;;;;;;;4994929;28;20810;-51
2023/01/21 12:10:55;;;;;;;10.18;9.48;;;;;;;;;;4995212;28;20045;-51
2023/01/21 12:13:28;;;;;;;11.00;10.10;;;;;;;;;;4993494;28;20049;-54
2023/01/21 12:16:14;;;;;;;10.93;10.23;;;;;;;;;;4997076;28;20104;-54
2023/01/21 12:18:52;;;;;;;11.95;10.82;;;;;;;;;;4995082;28;20072;-54
2023/01/21 12:21:42;;;;;;;12.00;11.10;;;;;;;;;;4995761;28;20048;-51
2023/01/21 12:24:38;;;;;;;11.40;10.63;;;;;;;;;;4995446;28;20083;-51
2023/01/21 12:27:30;;;;;;;12.45;11.23;;;;;;;;;;4997485;28;20110;-48
2023/01/21 12:30:20;;;;;;;11.00;10.23;;;;;;;;;;4999644;28;20126;-49
2023/01/21 12:32:53;;;;;;;11.57;10.77;;;;;;;;;;4996470;28;20038;-51
2023/01/21 12:35:26;;;;;;;10.48;9.77;;;;;;;;;;4998185;28;20064;-53
2023/01/21 12:38:05;;;;;;;10.23;9.38;;;;;;;;;;4997607;28;20456;-50
2023/01/21 12:40:51;;;;;;;9.00;8.40;;;;;;;;;;4999975;28;20479;-53
2023/01/21 12:43:26;;;;;;;11.38;10.35;;;;;;;;;;4994293;28;20048;-52
2023/01/21 12:46:14;;;;;;;10.82;10.02;;;;;;;;;;4999971;28;20069;-52
2023/01/21 12:48:51;;;;;;;10.57;9.82;;;;;;;;;;4997267;28;20087;-50
2023/01/21 12:51:24;;;;;;;10.60;9.77;;;;;;;;;;4995343;28;20026;-52
2023/01/21 12:53:57;;;;;;;10.10;9.40;;;;;;;;;;4996656;28;20493;-53
2023/01/21 12:56:31;;;;;;;9.57;8.98;;;;;;;;;;4996581;28;20030;-50
2023/01/21 12:59:13;;;;;;;10.00;9.30;;;;;;;;;;5000163;28;20121;-51
2023/01/21 13:01:50;;;;;;;9.57;8.98;;;;;;;;;;4997678;28;20038;-52
2023/01/21 13:04:56;;;;;;;10.43;9.73;;;;;;;;;;4995706;28;20045;-49
2023/01/21 13:07:43;;;;;;;9.55;8.85;;;;;;;;;;4997337;28;20030;-51
2023/01/21 13:10:22;;;;;;;9.45;8.85;;;;;;;;;;4997857;28;20038;-51
2023/01/21 13:12:57;;;;;;;10.75;10.05;;;;;;;;;;4999464;28;20148;-52
2023/01/21 13:15:34;;;;;;;10.13;9.43;;;;;;;;;;4997768;28;20030;-49
2023/01/21 13:18:08;;;;;;;10.40;9.80;;;;;;;;;;4998018;28;20030;-51
2023/01/21 13:20:39;;;;;;;10.00;9.35;;;;;;;;;;5000102;28;20097;-50
2023/01/21 13:23:42;;;;;;;9.82;9.23;;;;;;;;;;4999198;28;20056;-51
2023/01/21 13:26:33;;;;;;;10.05;9.45;;;;;;;;;;4999607;28;20061;-48
2023/01/21 13:29:11;;;;;;;11.88;11.02;;;;;;;;;;4994532;28;20088;-49
2023/01/21 13:31:47;;;;;;;11.18;10.48;;;;;;;;;;4996173;28;20037;-48
2023/01/21 13:34:21;;;;;;;10.98;10.18;;;;;;;;;;4994956;28;20062;-50
2023/01/21 13:37:05;;;;;;;10.32;9.68;;;;;;;;;;4994057;28;20068;-48
2023/01/21 13:39:42;;;;;;;10.45;9.60;;;;;;;;;;4994538;28;20046;-49
2023/01/21 13:42:26;;;;;;;10.07;9.45;;;;;;;;;;4994961;28;20049;-49
2023/01/21 13:45:23;;;;;;;10.52;9.82;;;;;;;;;;4993669;28;20038;-49
2023/01/21 13:48:08;;;;;;;9.80;9.10;;;;;;;;;;4995231;28;20578;-49
2023/01/21 13:50:42;;;;;;;10.88;9.88;;;;;;;;;;4994926;28;20440;-51
2023/01/21 13:53:29;;;;;;;9.88;9.23;;;;;;;;;;4996094;28;20041;-52
2023/01/21 13:56:16;;;;;;;10.38;9.55;;;;;;;;;;4995397;28;20478;-52
2023/01/21 13:58:50;;;;;;;9.50;8.90;;;;;;;;;;4999362;28;20038;-51
2023/01/21 14:01:28;;;;;;;10.88;10.18;;;;;;;;;;4996662;28;20057;-50
2023/01/21 14:04:05;;;;;;;9.73;9.10;;;;;;;;;;4995968;28;20640;-50
2023/01/21 14:06:44;;;;;;;10.25;9.55;;;;;;;;;;4997204;28;20058;-49
2023/01/21 14:09:23;;;;;;;10.10;9.48;;;;;;;;;;4996056;28;20132;-52
2023/01/21 14:12:06;;;;;;;10.70;10.00;;;;;;;;;;4996136;28;20037;-51
2023/01/21 14:15:02;;;;;;;9.70;9.10;;;;;;;;;;4996472;28;20112;-52
2023/01/21 14:17:46;;;;;;;9.35;8.75;;;;;;;;;;4993547;28;20052;-52
2023/01/21 14:20:30;;;;;;;10.90;10.20;;;;;;;;;;4997361;28;20061;-53
2023/01/21 14:22:55;;;;;;;10.70;9.88;;;;;;;;;;4996047;28;20099;-52
2023/01/21 14:25:36;;;;;;;9.50;8.90;;;;;;;;;;4997889;28;20037;-49
2023/01/21 14:28:10;;;;;;;12.25;11.20;;;;;;;;;;4998167;28;20244;-52
2023/01/21 14:30:48;;;;;;;9.98;9.27;;;;;;;;;;4996363;28;20042;-48
2023/01/21 14:33:32;;;;;;;11.02;10.32;;;;;;;;;;4996688;28;20034;-48
2023/01/21 14:36:16;;;;;;;10.32;9.68;;;;;;;;;;4996981;28;20022;-49
2023/01/21 14:38:53;;;;;;;10.80;10.07;;;;;;;;;;4997006;28;20034;-49
2023/01/21 14:41:18;;;;;;;11.77;10.50;;;;;;;;;;4994595;28;20042;-50
2023/01/21 14:43:47;;;;;;;10.02;9.38;;;;;;;;;;4993072;28;20052;-48
2023/01/21 14:46:29;;;;;;;10.40;9.63;;;;;;;;;;4996676;28;20030;-49